Hauptseite
METAR-TAF:

METAR-TAF

Flughäfen :

Flughafen Paris-Charles-de-Gaulle

Paris-Charles De Gaulle, Frankreich

Breite: 49-01N, Länge: 002-32E, Höhe: 118 m

Beobachtung

Neuester Wetterbericht von vor 21 Minuten, um 05:30 UTC
Wind 6 kt aus Südwest
Temperatur 18°C
Luftfeuchtigkeit 77%
Luftdruck 1018 hPa
Sichtweite 10 km oder mehr
Leicht bewölkt in der Höhe von 4600 ft
Durchbrochene Bewölkung in der Höhe von 21000 ft

METAR: LFPG 190530Z 23006KT 9999 FEW046 BKN210 18/14 Q1018 NOSIG

Zeit: 07:51 (05:51 UTC)

Prognose

Neuester Wetterbericht von vor 51 Minuten, um 05:00 UTC
Gültige Prognose vom 19 um 06 UTC bis 20 um 12 UTC
Wind 8 kt aus Südwest
Sichtweite 10 km oder mehr
keine Wolken unter 1500 m und keine Kumulonimbus oder Gewitterwolken

TAF: LFPG 190500Z 1906/2012 22008KT CAVOK TX26/1915Z TN15/2005Z

Wetterbeobachtungen und Prognosen von mehr als 4000 Flughäfen (METAR und TAF Bericht).

Die verfügbaren Stationen werden durch gelbe und rote Markierungen auf der Karte dargestellt.

Führen Sie die Maus auf sie, um den Namen der Station zu sehen.

Darauf klicken, um die Beobachtung von Wetterbeobachtungen und Prognosen zu sehen.

Um die Karte zu ändern : klicken Sie auf den grünen Tasten mit einem schwarzen Kreuz Zum Vergrößern, auf den grünen Button mit einem Gedankenstrich zu verkleinern, oder auf die grünen Pfeile für benachbarte Karten.


METAR-TAF: